Thedford, Canada
Current Conditions -  °F | °C
As of 12:00 PM on Saturday 25 Oct 2014 (Local Time) from CYZR Reporting Station
Overcast Overcast  
Wind Chill: 14°   Ceiling: 1900
Heat Index: 14°   Visibility: 9mi
Dew Point: 10°   Wind: 13mph
Humidity: 77%   Direction: 280°W
Pressure: 29.75"   Gusts: NA
Location:  43.17°N, 81.85°W
Report Text: CYZR 251600Z AUTO 28011KT 9SM OVC019 14/10 A2975 RMK SLP077 DENSITY ALT 800FT
Loading
Personal Weather Stations






























Interactive Weather Map
Tropical Storm Tracking
New forecast layout! Learn more

10-Day Weather Forecast

Advertisements
Track Severe Weather on mobile